This is the latest recevied weather packets stored in our database for station/object F4GCF-13. If no packets are shown the sender has not sent any weather packets the latest 1 day(s).
| Time | Temp. | Humidity | Pressure | Rain* | Wind** | Luminosity | Snow |
|---|---|---|---|---|---|---|---|
| 1777978659 | 17.22° C | 76% | 1014 hPa | 0 mm | 2.68 m/s, 293° | - | - |
| 1777978359 | 17.22° C | 78% | 1014 hPa | 0 mm | 1.79 m/s, 338° | - | - |
| 1777978058 | 16.11° C | 79% | 1014 hPa | 0 mm | 2.24 m/s, 254° | - | - |
| 1777977757 | 15.56° C | 78% | 1014 hPa | 0 mm | 1.34 m/s, 253° | - | - |
| 1777977458 | 15.56° C | 79% | 1015 hPa | 0 mm | 2.68 m/s, 262° | - | - |
| 1777977158 | 16.11° C | 81% | 1015 hPa | 0 mm | 2.68 m/s, 290° | - | - |
| 1777976937 | 16.67° C | 82% | 1015 hPa | 0 mm | 2.68 m/s, 325° | - | - |
| 1777976860 | 16.67° C | 82% | 1015 hPa | 0 mm | 2.68 m/s, 325° | - | - |
| 1777976557 | 16.11° C | 82% | 1014 hPa | 0 mm | 2.24 m/s, 303° | - | - |
| 1777976257 | 15.56° C | 87% | 1014 hPa | 0 mm | 3.13 m/s, 248° | - | - |
| 1777975958 | 15.56° C | 87% | 1014 hPa | 0 mm | 3.13 m/s, 248° | - | - |
| 1777975676 | 15.56° C | 87% | 1015 hPa | 0 mm | 3.13 m/s, 248° | - | - |
| 1777975358 | 15.56° C | 87% | 1015 hPa | 0 mm | 3.13 m/s, 248° | - | - |
| 1777975057 | 15.56° C | 88% | 1015 hPa | 0 mm | 1.79 m/s, 258° | - | - |
| 1777974757 | 15° C | 88% | 1015 hPa | 0 mm | 1.79 m/s, 278° | - | - |
| 1777974457 | 15° C | 88% | 1015 hPa | 0 mm | 3.13 m/s, 264° | - | - |
| 1777974158 | 15° C | 88% | 1015 hPa | 0 mm | 1.34 m/s, 272° | - | - |
| 1777973857 | 15° C | 88% | 1015 hPa | 0 mm | 1.79 m/s, 242° | - | - |
| 1777973557 | 14.44° C | 88% | 1015 hPa | 0 mm | 1.79 m/s, 248° | - | - |
| 1777973258 | 15° C | 88% | 1015 hPa | 0 mm | 1.79 m/s, 269° | - | - |
| 1777972357 | 15.56° C | 91% | 1015 hPa | 0 mm | 1.79 m/s, 263° | - | - |
| 1777972057 | 15° C | 91% | 1015 hPa | 0 mm | 2.24 m/s, 262° | - | - |
| 1777971759 | 15° C | 91% | 1015 hPa | 0 mm | 1.79 m/s, 248° | - | - |
| 1777971458 | 15° C | 92% | 1015 hPa | 0 mm | 2.68 m/s, 255° | - | - |
| 1777971158 | 15° C | 92% | 1015 hPa | 0 mm | 2.68 m/s, 252° | - | - |
* Rain latest hour (hover to see other rain measurements)
** Current wind speed in m/s (hover to see current wind gust speed)